sensor_id;sensor_type;location;lat;lon;timestamp;temperature;humidity
58554;DHT22;48119;53.218;6.576;2022-08-02T00:00:15;18.60;82.50
58554;DHT22;48119;53.218;6.576;2022-08-02T00:02:42;18.60;82.90
58554;DHT22;48119;53.218;6.576;2022-08-02T00:05:09;18.60;83.10
58554;DHT22;48119;53.218;6.576;2022-08-02T00:07:35;18.60;83.30
58554;DHT22;48119;53.218;6.576;2022-08-02T00:10:01;18.50;83.20
58554;DHT22;48119;53.218;6.576;2022-08-02T00:12:27;18.50;83.20
58554;DHT22;48119;53.218;6.576;2022-08-02T00:14:56;18.50;83.30
58554;DHT22;48119;53.218;6.576;2022-08-02T00:17:25;18.50;83.40
58554;DHT22;48119;53.218;6.576;2022-08-02T00:19:51;18.50;83.40
58554;DHT22;48119;53.218;6.576;2022-08-02T00:22:17;18.50;83.60
58554;DHT22;48119;53.218;6.576;2022-08-02T00:24:45;18.50;83.80
58554;DHT22;48119;53.218;6.576;2022-08-02T00:27:11;18.50;84.00
58554;DHT22;48119;53.218;6.576;2022-08-02T00:29:37;18.40;84.40
58554;DHT22;48119;53.218;6.576;2022-08-02T00:32:03;18.40;84.80
58554;DHT22;48119;53.218;6.576;2022-08-02T00:34:29;18.40;85.00
58554;DHT22;48119;53.218;6.576;2022-08-02T00:36:55;18.30;85.20
58554;DHT22;48119;53.218;6.576;2022-08-02T00:39:23;18.30;85.40
58554;DHT22;48119;53.218;6.576;2022-08-02T00:41:51;18.30;85.50
58554;DHT22;48119;53.218;6.576;2022-08-02T00:44:18;18.30;85.60
58554;DHT22;48119;53.218;6.576;2022-08-02T00:46:44;18.20;85.60
58554;DHT22;48119;53.218;6.576;2022-08-02T00:49:11;18.20;85.60
58554;DHT22;48119;53.218;6.576;2022-08-02T00:51:38;18.20;85.50
58554;DHT22;48119;53.218;6.576;2022-08-02T00:54:04;18.10;85.50
58554;DHT22;48119;53.218;6.576;2022-08-02T00:56:30;18.20;86.10
58554;DHT22;48119;53.218;6.576;2022-08-02T00:58:57;18.10;85.40
58554;DHT22;48119;53.218;6.576;2022-08-02T01:01:25;18.10;85.40
58554;DHT22;48119;53.218;6.576;2022-08-02T01:04:07;18.10;85.40
58554;DHT22;48119;53.218;6.576;2022-08-02T01:06:37;18.10;85.20
58554;DHT22;48119;53.218;6.576;2022-08-02T01:09:07;18.00;85.10
58554;DHT22;48119;53.218;6.576;2022-08-02T01:11:34;18.00;85.10
58554;DHT22;48119;53.218;6.576;2022-08-02T01:14:07;18.00;85.00
58554;DHT22;48119;53.218;6.576;2022-08-02T01:16:45;17.90;84.80
58554;DHT22;48119;53.218;6.576;2022-08-02T01:24:57;17.80;84.60
58554;DHT22;48119;53.218;6.576;2022-08-02T01:30:13;17.80;84.70
58554;DHT22;48119;53.218;6.576;2022-08-02T01:32:43;17.80;84.60
58554;DHT22;48119;53.218;6.576;2022-08-02T01:35:14;17.80;84.50
58554;DHT22;48119;53.218;6.576;2022-08-02T01:37:48;17.80;84.50
58554;DHT22;48119;53.218;6.576;2022-08-02T01:40:21;17.80;84.50
58554;DHT22;48119;53.218;6.576;2022-08-02T01:42:51;17.70;84.50
58554;DHT22;48119;53.218;6.576;2022-08-02T01:45:19;17.80;84.50
58554;DHT22;48119;53.218;6.576;2022-08-02T01:47:46;17.80;84.50
58554;DHT22;48119;53.218;6.576;2022-08-02T01:50:15;17.70;84.40
58554;DHT22;48119;53.218;6.576;2022-08-02T01:52:48;17.70;84.50
58554;DHT22;48119;53.218;6.576;2022-08-02T01:55:22;17.80;84.50
58554;DHT22;48119;53.218;6.576;2022-08-02T01:57:51;17.70;84.40
58554;DHT22;48119;53.218;6.576;2022-08-02T02:00:20;17.70;84.50
58554;DHT22;48119;53.218;6.576;2022-08-02T02:02:48;17.70;84.60
58554;DHT22;48119;53.218;6.576;2022-08-02T02:05:18;17.70;84.50
58554;DHT22;48119;53.218;6.576;2022-08-02T02:07:45;17.60;84.50
58554;DHT22;48119;53.218;6.576;2022-08-02T02:10:16;17.60;84.60
58554;DHT22;48119;53.218;6.576;2022-08-02T02:12:48;17.60;84.60
58554;DHT22;48119;53.218;6.576;2022-08-02T02:15:14;17.60;84.70
58554;DHT22;48119;53.218;6.576;2022-08-02T02:17:45;17.60;84.80
58554;DHT22;48119;53.218;6.576;2022-08-02T02:20:16;17.60;84.80
58554;DHT22;48119;53.218;6.576;2022-08-02T02:22:43;17.50;85.00
58554;DHT22;48119;53.218;6.576;2022-08-02T02:25:10;17.50;85.70
58554;DHT22;48119;53.218;6.576;2022-08-02T02:27:37;17.50;85.20
58554;DHT22;48119;53.218;6.576;2022-08-02T02:30:06;17.40;85.20
58554;DHT22;48119;53.218;6.576;2022-08-02T02:32:32;17.40;85.30
58554;DHT22;48119;53.218;6.576;2022-08-02T02:35:00;17.40;85.50
58554;DHT22;48119;53.218;6.576;2022-08-02T02:37:29;17.30;85.60
58554;DHT22;48119;53.218;6.576;2022-08-02T02:39:57;17.40;85.60
58554;DHT22;48119;53.218;6.576;2022-08-02T02:42:27;17.30;85.60
58554;DHT22;48119;53.218;6.576;2022-08-02T02:44:56;17.30;85.60
58554;DHT22;48119;53.218;6.576;2022-08-02T02:47:23;17.30;85.60
58554;DHT22;48119;53.218;6.576;2022-08-02T02:49:50;17.30;85.60
58554;DHT22;48119;53.218;6.576;2022-08-02T02:52:17;17.30;85.50
58554;DHT22;48119;53.218;6.576;2022-08-02T02:54:48;17.40;85.60
58554;DHT22;48119;53.218;6.576;2022-08-02T02:57:15;17.40;85.50
58554;DHT22;48119;53.218;6.576;2022-08-02T02:59:41;17.40;85.40
58554;DHT22;48119;53.218;6.576;2022-08-02T03:02:08;17.30;85.30
58554;DHT22;48119;53.218;6.576;2022-08-02T03:04:36;17.30;85.40
58554;DHT22;48119;53.218;6.576;2022-08-02T03:07:02;17.30;85.50
58554;DHT22;48119;53.218;6.576;2022-08-02T03:09:28;17.30;85.50
58554;DHT22;48119;53.218;6.576;2022-08-02T03:11:54;17.30;86.20
58554;DHT22;48119;53.218;6.576;2022-08-02T03:14:21;17.30;85.50
58554;DHT22;48119;53.218;6.576;2022-08-02T03:16:49;17.30;85.50
58554;DHT22;48119;53.218;6.576;2022-08-02T03:19:16;17.30;85.50
58554;DHT22;48119;53.218;6.576;2022-08-02T03:21:43;17.30;85.40
58554;DHT22;48119;53.218;6.576;2022-08-02T03:24:09;17.30;85.40
58554;DHT22;48119;53.218;6.576;2022-08-02T03:26:35;17.30;85.50
58554;DHT22;48119;53.218;6.576;2022-08-02T03:29:01;17.30;85.50
58554;DHT22;48119;53.218;6.576;2022-08-02T03:31:27;17.30;85.30
58554;DHT22;48119;53.218;6.576;2022-08-02T03:33:55;17.30;85.40
58554;DHT22;48119;53.218;6.576;2022-08-02T03:36:23;17.30;85.40
58554;DHT22;48119;53.218;6.576;2022-08-02T03:38:50;17.30;85.40
58554;DHT22;48119;53.218;6.576;2022-08-02T03:41:18;17.30;85.50
58554;DHT22;48119;53.218;6.576;2022-08-02T03:43:45;17.30;85.50
58554;DHT22;48119;53.218;6.576;2022-08-02T03:46:13;17.30;85.60
58554;DHT22;48119;53.218;6.576;2022-08-02T03:48:39;17.30;85.70
58554;DHT22;48119;53.218;6.576;2022-08-02T03:51:06;17.30;85.80
58554;DHT22;48119;53.218;6.576;2022-08-02T03:53:33;17.30;85.80
58554;DHT22;48119;53.218;6.576;2022-08-02T03:55:59;17.30;85.90
58554;DHT22;48119;53.218;6.576;2022-08-02T03:58:25;17.30;85.80
58554;DHT22;48119;53.218;6.576;2022-08-02T04:00:52;17.30;85.90
58554;DHT22;48119;53.218;6.576;2022-08-02T04:03:18;17.30;85.90
58554;DHT22;48119;53.218;6.576;2022-08-02T04:05:44;17.20;85.90
58554;DHT22;48119;53.218;6.576;2022-08-02T04:08:10;17.20;86.10
58554;DHT22;48119;53.218;6.576;2022-08-02T04:10:35;17.20;86.20
58554;DHT22;48119;53.218;6.576;2022-08-02T04:13:21;17.20;86.50
58554;DHT22;48119;53.218;6.576;2022-08-02T04:15:49;17.20;86.50
58554;DHT22;48119;53.218;6.576;2022-08-02T04:18:19;17.10;86.50
58554;DHT22;48119;53.218;6.576;2022-08-02T04:20:48;17.20;86.50
58554;DHT22;48119;53.218;6.576;2022-08-02T04:23:14;17.20;86.70
58554;DHT22;48119;53.218;6.576;2022-08-02T04:25:41;17.20;86.80
58554;DHT22;48119;53.218;6.576;2022-08-02T04:28:09;17.10;86.80
58554;DHT22;48119;53.218;6.576;2022-08-02T04:30:36;17.20;87.00
58554;DHT22;48119;53.218;6.576;2022-08-02T04:33:03;17.20;87.10
58554;DHT22;48119;53.218;6.576;2022-08-02T04:35:29;17.20;87.10
58554;DHT22;48119;53.218;6.576;2022-08-02T04:37:54;17.20;87.20
58554;DHT22;48119;53.218;6.576;2022-08-02T04:40:20;17.20;87.40
58554;DHT22;48119;53.218;6.576;2022-08-02T04:42:46;17.20;87.40
58554;DHT22;48119;53.218;6.576;2022-08-02T04:45:12;17.20;87.30
58554;DHT22;48119;53.218;6.576;2022-08-02T04:47:38;17.30;87.60
58554;DHT22;48119;53.218;6.576;2022-08-02T04:50:04;17.20;87.50
58554;DHT22;48119;53.218;6.576;2022-08-02T04:52:30;17.20;87.50
58554;DHT22;48119;53.218;6.576;2022-08-02T04:54:55;17.30;87.60
58554;DHT22;48119;53.218;6.576;2022-08-02T04:57:21;17.20;87.60
58554;DHT22;48119;53.218;6.576;2022-08-02T05:00:07;17.20;87.70
58554;DHT22;48119;53.218;6.576;2022-08-02T05:02:34;17.30;87.80
58554;DHT22;48119;53.218;6.576;2022-08-02T05:05:00;17.20;87.80
58554;DHT22;48119;53.218;6.576;2022-08-02T05:07:25;17.30;87.90
58554;DHT22;48119;53.218;6.576;2022-08-02T05:09:51;17.30;87.90
58554;DHT22;48119;53.218;6.576;2022-08-02T05:12:19;17.30;88.00
58554;DHT22;48119;53.218;6.576;2022-08-02T05:14:48;17.30;88.00
58554;DHT22;48119;53.218;6.576;2022-08-02T05:17:14;17.40;88.00
58554;DHT22;48119;53.218;6.576;2022-08-02T05:19:40;17.40;88.70
58554;DHT22;48119;53.218;6.576;2022-08-02T05:22:06;17.40;88.10
58554;DHT22;48119;53.218;6.576;2022-08-02T05:24:32;17.40;88.20
58554;DHT22;48119;53.218;6.576;2022-08-02T05:26:58;17.40;88.30
58554;DHT22;48119;53.218;6.576;2022-08-02T05:29:23;17.40;88.40
58554;DHT22;48119;53.218;6.576;2022-08-02T05:31:51;17.40;88.40
58554;DHT22;48119;53.218;6.576;2022-08-02T05:34:17;17.40;88.40
58554;DHT22;48119;53.218;6.576;2022-08-02T05:36:43;17.50;88.50
58554;DHT22;48119;53.218;6.576;2022-08-02T05:39:11;17.50;88.60
58554;DHT22;48119;53.218;6.576;2022-08-02T05:41:37;17.50;88.60
58554;DHT22;48119;53.218;6.576;2022-08-02T05:44:03;17.50;88.60
58554;DHT22;48119;53.218;6.576;2022-08-02T05:46:29;17.50;88.60
58554;DHT22;48119;53.218;6.576;2022-08-02T05:48:55;17.60;88.60
58554;DHT22;48119;53.218;6.576;2022-08-02T05:54:19;17.60;88.50
58554;DHT22;48119;53.218;6.576;2022-08-02T05:56:58;17.70;88.60
58554;DHT22;48119;53.218;6.576;2022-08-02T06:01:56;17.70;88.90
58554;DHT22;48119;53.218;6.576;2022-08-02T06:04:32;17.80;88.90
58554;DHT22;48119;53.218;6.576;2022-08-02T06:07:00;17.80;88.80
58554;DHT22;48119;53.218;6.576;2022-08-02T06:09:32;17.80;88.90
58554;DHT22;48119;53.218;6.576;2022-08-02T06:12:00;17.90;88.90
58554;DHT22;48119;53.218;6.576;2022-08-02T06:14:30;17.90;88.90
58554;DHT22;48119;53.218;6.576;2022-08-02T06:16:57;17.90;88.90
58554;DHT22;48119;53.218;6.576;2022-08-02T06:19:24;18.00;88.90
58554;DHT22;48119;53.218;6.576;2022-08-02T06:21:51;18.00;89.00
58554;DHT22;48119;53.218;6.576;2022-08-02T06:24:18;18.00;89.00
58554;DHT22;48119;53.218;6.576;2022-08-02T06:26:48;18.00;89.10
58554;DHT22;48119;53.218;6.576;2022-08-02T06:29:19;18.10;89.10
58554;DHT22;48119;53.218;6.576;2022-08-02T06:31:46;18.10;89.10
58554;DHT22;48119;53.218;6.576;2022-08-02T06:34:12;18.20;89.10
58554;DHT22;48119;53.218;6.576;2022-08-02T06:36:49;18.20;89.00
58554;DHT22;48119;53.218;6.576;2022-08-02T06:39:26;18.20;89.00
58554;DHT22;48119;53.218;6.576;2022-08-02T06:41:58;18.30;88.90
58554;DHT22;48119;53.218;6.576;2022-08-02T06:44:26;18.30;88.90
58554;DHT22;48119;53.218;6.576;2022-08-02T06:46:53;18.40;88.80
58554;DHT22;48119;53.218;6.576;2022-08-02T06:49:18;18.40;88.80
58554;DHT22;48119;53.218;6.576;2022-08-02T06:51:44;18.50;88.80
58554;DHT22;48119;53.218;6.576;2022-08-02T06:54:10;18.40;88.60
58554;DHT22;48119;53.218;6.576;2022-08-02T06:56:36;18.50;88.60
58554;DHT22;48119;53.218;6.576;2022-08-02T06:59:01;18.50;88.50
58554;DHT22;48119;53.218;6.576;2022-08-02T07:01:27;18.60;88.50
58554;DHT22;48119;53.218;6.576;2022-08-02T07:03:53;18.60;88.40
58554;DHT22;48119;53.218;6.576;2022-08-02T07:06:18;18.60;88.30
58554;DHT22;48119;53.218;6.576;2022-08-02T07:08:44;18.70;88.10
58554;DHT22;48119;53.218;6.576;2022-08-02T07:11:10;18.70;88.10
58554;DHT22;48119;53.218;6.576;2022-08-02T07:13:36;18.70;88.10
58554;DHT22;48119;53.218;6.576;2022-08-02T07:16:02;18.80;87.90
58554;DHT22;48119;53.218;6.576;2022-08-02T07:18:29;18.80;87.60
58554;DHT22;48119;53.218;6.576;2022-08-02T07:20:54;18.90;87.50
58554;DHT22;48119;53.218;6.576;2022-08-02T07:23:20;18.90;87.30
58554;DHT22;48119;53.218;6.576;2022-08-02T07:25:47;18.90;86.90
58554;DHT22;48119;53.218;6.576;2022-08-02T07:28:13;18.90;86.80
58554;DHT22;48119;53.218;6.576;2022-08-02T07:30:42;18.90;86.80
58554;DHT22;48119;53.218;6.576;2022-08-02T07:33:08;19.00;86.60
58554;DHT22;48119;53.218;6.576;2022-08-02T07:35:34;19.00;86.50
58554;DHT22;48119;53.218;6.576;2022-08-02T07:38:00;19.00;86.20
58554;DHT22;48119;53.218;6.576;2022-08-02T07:40:27;19.10;85.70
58554;DHT22;48119;53.218;6.576;2022-08-02T07:42:55;19.10;85.40
58554;DHT22;48119;53.218;6.576;2022-08-02T07:45:21;19.10;84.90
58554;DHT22;48119;53.218;6.576;2022-08-02T07:47:48;19.10;85.00
58554;DHT22;48119;53.218;6.576;2022-08-02T07:50:15;19.10;84.80
58554;DHT22;48119;53.218;6.576;2022-08-02T07:52:42;19.20;84.60
58554;DHT22;48119;53.218;6.576;2022-08-02T07:55:09;19.20;84.40
58554;DHT22;48119;53.218;6.576;2022-08-02T07:57:36;19.20;83.80
58554;DHT22;48119;53.218;6.576;2022-08-02T08:00:03;19.20;83.70
58554;DHT22;48119;53.218;6.576;2022-08-02T08:02:29;19.30;83.30
58554;DHT22;48119;53.218;6.576;2022-08-02T08:04:55;19.30;83.00
58554;DHT22;48119;53.218;6.576;2022-08-02T08:07:20;19.30;82.90
58554;DHT22;48119;53.218;6.576;2022-08-02T08:09:46;19.40;82.90
58554;DHT22;48119;53.218;6.576;2022-08-02T08:12:15;19.40;82.60
58554;DHT22;48119;53.218;6.576;2022-08-02T08:14:41;19.50;82.40
58554;DHT22;48119;53.218;6.576;2022-08-02T08:17:07;19.50;82.80
58554;DHT22;48119;53.218;6.576;2022-08-02T08:19:33;19.50;81.90
58554;DHT22;48119;53.218;6.576;2022-08-02T08:21:59;19.60;81.50
58554;DHT22;48119;53.218;6.576;2022-08-02T08:24:28;19.60;81.10
58554;DHT22;48119;53.218;6.576;2022-08-02T08:26:57;19.70;81.10
58554;DHT22;48119;53.218;6.576;2022-08-02T08:29:23;19.70;81.50
58554;DHT22;48119;53.218;6.576;2022-08-02T08:31:50;19.80;81.00
58554;DHT22;48119;53.218;6.576;2022-08-02T08:34:16;19.80;81.50
58554;DHT22;48119;53.218;6.576;2022-08-02T08:36:42;19.80;80.40
58554;DHT22;48119;53.218;6.576;2022-08-02T08:39:08;19.90;80.30
58554;DHT22;48119;53.218;6.576;2022-08-02T08:41:35;19.90;80.20
58554;DHT22;48119;53.218;6.576;2022-08-02T08:44:01;19.90;79.50
58554;DHT22;48119;53.218;6.576;2022-08-02T08:46:32;20.00;78.70
58554;DHT22;48119;53.218;6.576;2022-08-02T08:49:02;20.00;78.10
58554;DHT22;48119;53.218;6.576;2022-08-02T08:51:35;20.00;78.20
58554;DHT22;48119;53.218;6.576;2022-08-02T08:54:03;20.10;78.30
58554;DHT22;48119;53.218;6.576;2022-08-02T08:56:33;20.10;78.30
58554;DHT22;48119;53.218;6.576;2022-08-02T08:58:59;20.10;77.40
58554;DHT22;48119;53.218;6.576;2022-08-02T09:01:26;20.20;77.40
58554;DHT22;48119;53.218;6.576;2022-08-02T09:03:52;20.20;77.60
58554;DHT22;48119;53.218;6.576;2022-08-02T09:06:17;20.30;77.90
58554;DHT22;48119;53.218;6.576;2022-08-02T09:08:43;20.30;77.00
58554;DHT22;48119;53.218;6.576;2022-08-02T09:11:14;20.40;77.30
58554;DHT22;48119;53.218;6.576;2022-08-02T09:13:52;20.40;77.20
58554;DHT22;48119;53.218;6.576;2022-08-02T09:16:44;20.40;77.00
58554;DHT22;48119;53.218;6.576;2022-08-02T09:19:18;20.50;77.10
58554;DHT22;48119;53.218;6.576;2022-08-02T09:21:48;20.50;76.70
58554;DHT22;48119;53.218;6.576;2022-08-02T09:24:16;20.60;77.20
58554;DHT22;48119;53.218;6.576;2022-08-02T09:26:42;20.70;77.10
58554;DHT22;48119;53.218;6.576;2022-08-02T09:29:08;20.70;76.90
58554;DHT22;48119;53.218;6.576;2022-08-02T09:31:34;20.80;77.20
58554;DHT22;48119;53.218;6.576;2022-08-02T09:33:59;20.80;77.10
58554;DHT22;48119;53.218;6.576;2022-08-02T09:36:27;20.90;77.80
58554;DHT22;48119;53.218;6.576;2022-08-02T09:39:03;20.90;77.60
58554;DHT22;48119;53.218;6.576;2022-08-02T09:41:35;21.00;77.80
58554;DHT22;48119;53.218;6.576;2022-08-02T09:44:03;21.00;78.00
58554;DHT22;48119;53.218;6.576;2022-08-02T09:46:30;21.10;78.10
58554;DHT22;48119;53.218;6.576;2022-08-02T09:49:01;21.10;77.70
58554;DHT22;48119;53.218;6.576;2022-08-02T09:51:29;21.20;78.20
58554;DHT22;48119;53.218;6.576;2022-08-02T09:53:58;21.20;78.20
58554;DHT22;48119;53.218;6.576;2022-08-02T09:56:25;21.20;77.90
58554;DHT22;48119;53.218;6.576;2022-08-02T09:58:52;21.30;77.90
58554;DHT22;48119;53.218;6.576;2022-08-02T10:01:20;21.30;77.90
58554;DHT22;48119;53.218;6.576;2022-08-02T10:03:57;21.30;78.40
58554;DHT22;48119;53.218;6.576;2022-08-02T10:06:24;21.30;78.60
58554;DHT22;48119;53.218;6.576;2022-08-02T10:08:51;21.40;78.80
58554;DHT22;48119;53.218;6.576;2022-08-02T10:11:19;21.40;78.90
58554;DHT22;48119;53.218;6.576;2022-08-02T10:13:46;21.50;79.10
58554;DHT22;48119;53.218;6.576;2022-08-02T10:16:14;21.60;79.00
58554;DHT22;48119;53.218;6.576;2022-08-02T10:18:42;21.60;78.90
58554;DHT22;48119;53.218;6.576;2022-08-02T10:23:47;21.70;79.00
58554;DHT22;48119;53.218;6.576;2022-08-02T10:26:16;21.70;79.30
58554;DHT22;48119;53.218;6.576;2022-08-02T10:28:47;21.70;79.50
58554;DHT22;48119;53.218;6.576;2022-08-02T10:31:18;21.70;79.70
58554;DHT22;48119;53.218;6.576;2022-08-02T10:33:45;21.80;79.80
58554;DHT22;48119;53.218;6.576;2022-08-02T10:36:13;21.90;80.00
58554;DHT22;48119;53.218;6.576;2022-08-02T10:38:39;21.90;80.20
58554;DHT22;48119;53.218;6.576;2022-08-02T10:41:05;21.90;80.20
58554;DHT22;48119;53.218;6.576;2022-08-02T10:46:33;22.00;80.60
58554;DHT22;48119;53.218;6.576;2022-08-02T10:49:10;22.00;80.80
58554;DHT22;48119;53.218;6.576;2022-08-02T10:54:38;22.10;81.20
58554;DHT22;48119;53.218;6.576;2022-08-02T10:57:16;22.10;81.50
58554;DHT22;48119;53.218;6.576;2022-08-02T10:59:42;22.20;81.80
58554;DHT22;48119;53.218;6.576;2022-08-02T11:02:08;22.20;81.90
58554;DHT22;48119;53.218;6.576;2022-08-02T11:09:35;22.40;81.00
58554;DHT22;48119;53.218;6.576;2022-08-02T11:12:07;22.40;80.80
58554;DHT22;48119;53.218;6.576;2022-08-02T11:14:39;22.40;80.70
58554;DHT22;48119;53.218;6.576;2022-08-02T11:17:06;22.40;80.80
58554;DHT22;48119;53.218;6.576;2022-08-02T11:19:33;22.50;81.50
58554;DHT22;48119;53.218;6.576;2022-08-02T11:22:03;22.50;82.00
58554;DHT22;48119;53.218;6.576;2022-08-02T11:24:33;22.50;82.10
58554;DHT22;48119;53.218;6.576;2022-08-02T11:27:01;22.50;82.20
58554;DHT22;48119;53.218;6.576;2022-08-02T11:32:01;22.50;81.50
58554;DHT22;48119;53.218;6.576;2022-08-02T11:34:31;22.50;81.30
58554;DHT22;48119;53.218;6.576;2022-08-02T11:36:58;22.50;81.50
58554;DHT22;48119;53.218;6.576;2022-08-02T11:39:28;22.50;81.70
58554;DHT22;48119;53.218;6.576;2022-08-02T11:41:58;22.60;82.00
58554;DHT22;48119;53.218;6.576;2022-08-02T11:44:29;22.60;81.80
58554;DHT22;48119;53.218;6.576;2022-08-02T11:47:03;22.60;82.30
58554;DHT22;48119;53.218;6.576;2022-08-02T11:49:33;22.70;82.30
58554;DHT22;48119;53.218;6.576;2022-08-02T11:52:05;22.70;82.30
58554;DHT22;48119;53.218;6.576;2022-08-02T11:54:41;22.70;82.50
58554;DHT22;48119;53.218;6.576;2022-08-02T11:57:17;22.70;82.40
58554;DHT22;48119;53.218;6.576;2022-08-02T11:59:46;22.70;82.40
58554;DHT22;48119;53.218;6.576;2022-08-02T12:02:14;22.70;82.60
58554;DHT22;48119;53.218;6.576;2022-08-02T12:04:41;22.70;82.70
58554;DHT22;48119;53.218;6.576;2022-08-02T12:07:07;22.80;82.40
58554;DHT22;48119;53.218;6.576;2022-08-02T12:09:35;22.80;82.10
58554;DHT22;48119;53.218;6.576;2022-08-02T12:12:02;22.80;82.10
58554;DHT22;48119;53.218;6.576;2022-08-02T12:14:31;22.80;81.80
58554;DHT22;48119;53.218;6.576;2022-08-02T12:17:00;22.80;81.70
58554;DHT22;48119;53.218;6.576;2022-08-02T12:19:46;22.70;82.00
58554;DHT22;48119;53.218;6.576;2022-08-02T12:22:27;22.70;82.60
58554;DHT22;48119;53.218;6.576;2022-08-02T12:24:55;22.70;83.00
58554;DHT22;48119;53.218;6.576;2022-08-02T12:27:50;22.70;83.50
58554;DHT22;48119;53.218;6.576;2022-08-02T12:30:19;22.70;84.10
58554;DHT22;48119;53.218;6.576;2022-08-02T12:32:47;22.70;84.10
58554;DHT22;48119;53.218;6.576;2022-08-02T12:35:16;22.80;84.30
58554;DHT22;48119;53.218;6.576;2022-08-02T12:37:47;22.80;84.40
58554;DHT22;48119;53.218;6.576;2022-08-02T12:40:30;22.70;84.70
58554;DHT22;48119;53.218;6.576;2022-08-02T12:43:02;22.80;85.00
58554;DHT22;48119;53.218;6.576;2022-08-02T12:45:30;22.80;85.20
58554;DHT22;48119;53.218;6.576;2022-08-02T12:47:58;22.80;85.20
58554;DHT22;48119;53.218;6.576;2022-08-02T12:53:25;22.70;85.70
58554;DHT22;48119;53.218;6.576;2022-08-02T12:55:56;22.70;85.60
58554;DHT22;48119;53.218;6.576;2022-08-02T12:58:28;22.70;86.00
58554;DHT22;48119;53.218;6.576;2022-08-02T13:01:00;22.70;86.60
58554;DHT22;48119;53.218;6.576;2022-08-02T13:03:31;22.70;87.00
58554;DHT22;48119;53.218;6.576;2022-08-02T13:05:57;22.70;87.00
58554;DHT22;48119;53.218;6.576;2022-08-02T13:08:25;22.70;87.70
58554;DHT22;48119;53.218;6.576;2022-08-02T13:10:53;22.70;87.30
58554;DHT22;48119;53.218;6.576;2022-08-02T13:13:21;22.70;87.60
58554;DHT22;48119;53.218;6.576;2022-08-02T13:15:49;22.70;87.90
58554;DHT22;48119;53.218;6.576;2022-08-02T13:18:20;22.70;88.10
58554;DHT22;48119;53.218;6.576;2022-08-02T13:20:56;22.70;88.10
58554;DHT22;48119;53.218;6.576;2022-08-02T13:23:25;22.70;88.20
58554;DHT22;48119;53.218;6.576;2022-08-02T13:25:51;22.70;88.00
58554;DHT22;48119;53.218;6.576;2022-08-02T13:28:21;22.60;88.30
58554;DHT22;48119;53.218;6.576;2022-08-02T13:30:48;22.70;88.10
58554;DHT22;48119;53.218;6.576;2022-08-02T13:33:19;22.60;87.60
58554;DHT22;48119;53.218;6.576;2022-08-02T13:35:46;22.60;87.10
58554;DHT22;48119;53.218;6.576;2022-08-02T13:38:12;22.60;86.70
58554;DHT22;48119;53.218;6.576;2022-08-02T13:40:41;22.60;86.20
58554;DHT22;48119;53.218;6.576;2022-08-02T13:43:25;22.60;85.80
58554;DHT22;48119;53.218;6.576;2022-08-02T13:45:54;22.60;85.60
58554;DHT22;48119;53.218;6.576;2022-08-02T13:48:20;22.60;85.70
58554;DHT22;48119;53.218;6.576;2022-08-02T13:50:48;22.60;85.80
58554;DHT22;48119;53.218;6.576;2022-08-02T13:53:16;22.70;85.60
58554;DHT22;48119;53.218;6.576;2022-08-02T13:55:42;22.70;85.00
58554;DHT22;48119;53.218;6.576;2022-08-02T13:58:08;22.70;84.90
58554;DHT22;48119;53.218;6.576;2022-08-02T14:00:34;22.70;85.00
58554;DHT22;48119;53.218;6.576;2022-08-02T14:03:08;22.70;85.10
58554;DHT22;48119;53.218;6.576;2022-08-02T14:05:43;22.70;85.20
58554;DHT22;48119;53.218;6.576;2022-08-02T14:08:09;22.70;85.30
58554;DHT22;48119;53.218;6.576;2022-08-02T14:10:35;22.80;85.80
58554;DHT22;48119;53.218;6.576;2022-08-02T14:13:00;22.70;85.80
58554;DHT22;48119;53.218;6.576;2022-08-02T14:15:32;22.70;85.50
58554;DHT22;48119;53.218;6.576;2022-08-02T14:18:01;22.70;85.90
58554;DHT22;48119;53.218;6.576;2022-08-02T14:20:27;22.80;86.00
58554;DHT22;48119;53.218;6.576;2022-08-02T14:23:00;22.80;86.10
58554;DHT22;48119;53.218;6.576;2022-08-02T14:25:28;22.80;86.30
58554;DHT22;48119;53.218;6.576;2022-08-02T14:28:03;22.80;86.30
58554;DHT22;48119;53.218;6.576;2022-08-02T14:30:29;22.80;86.30
58554;DHT22;48119;53.218;6.576;2022-08-02T14:32:58;22.80;86.20
58554;DHT22;48119;53.218;6.576;2022-08-02T14:35:24;22.80;85.80
58554;DHT22;48119;53.218;6.576;2022-08-02T14:37:55;22.80;85.90
58554;DHT22;48119;53.218;6.576;2022-08-02T14:40:21;22.80;85.70
58554;DHT22;48119;53.218;6.576;2022-08-02T14:42:48;22.80;85.50
58554;DHT22;48119;53.218;6.576;2022-08-02T14:45:17;22.80;85.50
58554;DHT22;48119;53.218;6.576;2022-08-02T14:47:43;22.80;85.60
58554;DHT22;48119;53.218;6.576;2022-08-02T14:50:12;22.80;85.10
58554;DHT22;48119;53.218;6.576;2022-08-02T14:52:40;22.80;85.20
58554;DHT22;48119;53.218;6.576;2022-08-02T14:55:09;22.80;85.60
58554;DHT22;48119;53.218;6.576;2022-08-02T14:57:35;22.80;85.90
58554;DHT22;48119;53.218;6.576;2022-08-02T15:00:01;22.90;86.30
58554;DHT22;48119;53.218;6.576;2022-08-02T15:02:30;22.90;86.50
58554;DHT22;48119;53.218;6.576;2022-08-02T15:04:58;22.90;86.50
58554;DHT22;48119;53.218;6.576;2022-08-02T15:07:26;22.90;86.70
58554;DHT22;48119;53.218;6.576;2022-08-02T15:09:52;23.00;86.90
58554;DHT22;48119;53.218;6.576;2022-08-02T15:12:18;23.00;87.00
58554;DHT22;48119;53.218;6.576;2022-08-02T15:14:49;23.00;87.00
58554;DHT22;48119;53.218;6.576;2022-08-02T15:17:19;23.00;87.00
58554;DHT22;48119;53.218;6.576;2022-08-02T15:19:45;23.10;86.90
58554;DHT22;48119;53.218;6.576;2022-08-02T15:22:11;23.10;86.70
58554;DHT22;48119;53.218;6.576;2022-08-02T15:24:39;23.10;86.60
58554;DHT22;48119;53.218;6.576;2022-08-02T15:27:05;23.10;86.20
58554;DHT22;48119;53.218;6.576;2022-08-02T15:29:34;23.10;86.20
58554;DHT22;48119;53.218;6.576;2022-08-02T15:32:05;23.20;86.30
58554;DHT22;48119;53.218;6.576;2022-08-02T15:34:31;23.20;86.00
58554;DHT22;48119;53.218;6.576;2022-08-02T15:36:59;23.20;85.70
58554;DHT22;48119;53.218;6.576;2022-08-02T15:39:26;23.20;85.00
58554;DHT22;48119;53.218;6.576;2022-08-02T15:41:55;23.20;84.50
58554;DHT22;48119;53.218;6.576;2022-08-02T15:44:21;23.20;84.50
58554;DHT22;48119;53.218;6.576;2022-08-02T15:46:47;23.30;84.50
58554;DHT22;48119;53.218;6.576;2022-08-02T15:49:12;23.30;85.00
58554;DHT22;48119;53.218;6.576;2022-08-02T15:51:38;23.30;84.20
58554;DHT22;48119;53.218;6.576;2022-08-02T15:54:07;23.30;84.00
58554;DHT22;48119;53.218;6.576;2022-08-02T15:56:33;23.30;84.20
58554;DHT22;48119;53.218;6.576;2022-08-02T15:58:59;23.30;84.60
58554;DHT22;48119;53.218;6.576;2022-08-02T16:01:30;23.30;84.60
58554;DHT22;48119;53.218;6.576;2022-08-02T16:03:56;23.40;84.80
58554;DHT22;48119;53.218;6.576;2022-08-02T16:06:22;23.40;84.90
58554;DHT22;48119;53.218;6.576;2022-08-02T16:08:50;23.40;84.90